This is the latest recevied weather packets stored in our database for station/object N0FDH. If no packets are shown the sender has not sent any weather packets the latest 10 day(s).
| Time | Temp. | Humidity | Pressure | Rain* | Wind** | Luminosity | Snow |
|---|---|---|---|---|---|---|---|
| 1777494543 | 8.89° C | 39% | 1016.4 hPa | 0 mm | - | 139 W/m² | - |
| 1777494240 | 8.89° C | 43% | 1016.5 hPa | 0 mm | - | 115 W/m² | - |
| 1777493937 | 8.89° C | 39% | 1016.4 hPa | 0 mm | - | 150 W/m² | - |
| 1777493635 | 8.89° C | 38% | 1016.4 hPa | 0 mm | - | 172 W/m² | - |
| 1777493332 | 8.89° C | 45% | 1016.4 hPa | 0 mm | - | 217 W/m² | - |
| 1777493028 | 8.89° C | 40% | 1016.6 hPa | 0 mm | - | 172 W/m² | - |
| 1777492725 | 8.89° C | 40% | 1016.4 hPa | 0 mm | - | 228 W/m² | - |
| 1777492425 | 8.89° C | 39% | 1016.5 hPa | 0 mm | - | 208 W/m² | - |
| 1777492123 | 8.89° C | 40% | 1016.6 hPa | 0 mm | - | 234 W/m² | - |
| 1777491819 | 8.89° C | 40% | 1016.6 hPa | 0 mm | - | 234 W/m² | - |
| 1777491516 | 8.89° C | 41% | 1016.5 hPa | 0 mm | - | 184 W/m² | - |
| 1777491214 | 8.89° C | 39% | 1016.5 hPa | 0 mm | - | 470 W/m² | - |
| 1777490909 | 9.44° C | 43% | 1016.5 hPa | 0 mm | - | 246 W/m² | - |
| 1777490606 | 10° C | 36% | 1016.5 hPa | 0 mm | - | 236 W/m² | - |
| 1777490302 | 8.89° C | 37% | 1016.4 hPa | 0 mm | - | 533 W/m² | - |
| 1777490000 | 9.44° C | 40% | 1016.4 hPa | 0 mm | - | 288 W/m² | - |
| 1777489697 | 9.44° C | 40% | 1016.6 hPa | 0 mm | - | 221 W/m² | - |
| 1777489394 | 8.89° C | 44% | 1016.5 hPa | 0 mm | - | 813 W/m² | - |
| 1777489090 | 8.89° C | 44% | 1016.6 hPa | 0 mm | - | 196 W/m² | - |
| 1777488787 | 8.89° C | 37% | 1016.5 hPa | 0 mm | - | 207 W/m² | - |
| 1777488485 | 9.44° C | 35% | 1016.7 hPa | 0 mm | - | 203 W/m² | - |
| 1777488183 | 9.44° C | 39% | 1016.6 hPa | 0 mm | - | 224 W/m² | - |
| 1777487881 | 8.89° C | 39% | 1016.7 hPa | 0 mm | - | 797 W/m² | - |
| 1777487578 | 8.89° C | 37% | 1016.6 hPa | 0 mm | - | 174 W/m² | - |
| 1777487275 | 8.33° C | 43% | 1016.7 hPa | 0 mm | - | 194 W/m² | - |
* Rain latest hour (hover to see other rain measurements)
** Current wind speed in m/s (hover to see current wind gust speed)